sensor_id;sensor_type;location;lat;lon;timestamp;P1;durP1;ratioP1;P2;durP2;ratioP2
2452;SDS011;63678;47.994;7.854;2023-08-30T00:00:30;7.78;;;4.80;;
2452;SDS011;63678;47.994;7.854;2023-08-30T00:03:02;7.23;;;4.20;;
2452;SDS011;63678;47.994;7.854;2023-08-30T00:05:38;6.28;;;4.05;;
2452;SDS011;63678;47.994;7.854;2023-08-30T00:08:11;6.50;;;4.75;;
2452;SDS011;63678;47.994;7.854;2023-08-30T00:10:45;7.20;;;4.47;;
2452;SDS011;63678;47.994;7.854;2023-08-30T00:13:17;6.53;;;4.68;;
2452;SDS011;63678;47.994;7.854;2023-08-30T00:15:50;8.97;;;5.43;;
2452;SDS011;63678;47.994;7.854;2023-08-30T00:18:22;5.60;;;4.30;;
2452;SDS011;63678;47.994;7.854;2023-08-30T00:20:55;10.57;;;4.80;;
2452;SDS011;63678;47.994;7.854;2023-08-30T00:23:28;6.50;;;4.20;;
2452;SDS011;63678;47.994;7.854;2023-08-30T00:26:00;5.28;;;4.03;;
2452;SDS011;63678;47.994;7.854;2023-08-30T00:28:33;5.23;;;3.77;;
2452;SDS011;63678;47.994;7.854;2023-08-30T00:31:05;6.63;;;4.00;;
2452;SDS011;63678;47.994;7.854;2023-08-30T00:33:38;7.20;;;4.60;;
2452;SDS011;63678;47.994;7.854;2023-08-30T00:36:10;8.43;;;4.28;;
2452;SDS011;63678;47.994;7.854;2023-08-30T00:38:42;8.40;;;4.68;;
2452;SDS011;63678;47.994;7.854;2023-08-30T00:41:14;7.63;;;4.10;;
2452;SDS011;63678;47.994;7.854;2023-08-30T00:43:46;12.13;;;4.65;;
2452;SDS011;63678;47.994;7.854;2023-08-30T00:46:18;9.80;;;4.88;;
2452;SDS011;63678;47.994;7.854;2023-08-30T00:48:51;10.00;;;4.57;;
2452;SDS011;63678;47.994;7.854;2023-08-30T00:51:23;10.32;;;4.65;;
2452;SDS011;63678;47.994;7.854;2023-08-30T00:53:55;10.07;;;4.40;;
2452;SDS011;63678;47.994;7.854;2023-08-30T00:56:28;7.05;;;4.50;;
2452;SDS011;63678;47.994;7.854;2023-08-30T00:59:01;10.23;;;5.07;;
2452;SDS011;63678;47.994;7.854;2023-08-30T01:01:33;33.50;;;7.40;;
2452;SDS011;63678;47.994;7.854;2023-08-30T01:04:05;13.50;;;5.03;;
2452;SDS011;63678;47.994;7.854;2023-08-30T01:06:37;12.70;;;4.73;;
2452;SDS011;63678;47.994;7.854;2023-08-30T01:09:10;7.20;;;4.80;;
2452;SDS011;63678;47.994;7.854;2023-08-30T01:11:46;8.75;;;4.70;;
2452;SDS011;63678;47.994;7.854;2023-08-30T01:14:26;6.47;;;4.50;;
2452;SDS011;63678;47.994;7.854;2023-08-30T01:17:10;6.63;;;4.65;;
2452;SDS011;63678;47.994;7.854;2023-08-30T01:20:30;8.93;;;5.20;;
2452;SDS011;63678;47.994;7.854;2023-08-30T01:29:16;7.00;;;4.78;;
2452;SDS011;63678;47.994;7.854;2023-08-30T01:31:50;8.48;;;5.45;;
2452;SDS011;63678;47.994;7.854;2023-08-30T01:34:23;5.87;;;4.40;;
2452;SDS011;63678;47.994;7.854;2023-08-30T01:36:57;6.40;;;4.47;;
2452;SDS011;63678;47.994;7.854;2023-08-30T01:39:31;6.88;;;4.90;;
2452;SDS011;63678;47.994;7.854;2023-08-30T01:42:04;6.25;;;4.15;;
2452;SDS011;63678;47.994;7.854;2023-08-30T01:44:37;6.13;;;4.30;;
2452;SDS011;63678;47.994;7.854;2023-08-30T01:47:11;7.57;;;4.40;;
2452;SDS011;63678;47.994;7.854;2023-08-30T01:49:44;6.82;;;4.68;;
2452;SDS011;63678;47.994;7.854;2023-08-30T01:52:17;7.25;;;5.15;;
2452;SDS011;63678;47.994;7.854;2023-08-30T01:54:51;6.13;;;4.53;;
2452;SDS011;63678;47.994;7.854;2023-08-30T01:57:24;6.43;;;4.38;;
2452;SDS011;63678;47.994;7.854;2023-08-30T01:59:57;8.97;;;4.40;;
2452;SDS011;63678;47.994;7.854;2023-08-30T02:02:29;7.85;;;4.35;;
2452;SDS011;63678;47.994;7.854;2023-08-30T02:05:02;6.93;;;4.65;;
2452;SDS011;63678;47.994;7.854;2023-08-30T02:10:28;7.18;;;4.63;;
2452;SDS011;63678;47.994;7.854;2023-08-30T02:13:05;7.70;;;4.80;;
2452;SDS011;63678;47.994;7.854;2023-08-30T02:15:37;7.45;;;4.70;;
2452;SDS011;63678;47.994;7.854;2023-08-30T02:18:13;6.45;;;4.40;;
2452;SDS011;63678;47.994;7.854;2023-08-30T02:20:46;8.23;;;4.55;;
2452;SDS011;63678;47.994;7.854;2023-08-30T02:23:18;5.85;;;4.72;;
2452;SDS011;63678;47.994;7.854;2023-08-30T02:25:54;6.40;;;4.47;;
2452;SDS011;63678;47.994;7.854;2023-08-30T02:28:27;7.15;;;4.55;;
2452;SDS011;63678;47.994;7.854;2023-08-30T02:30:59;7.53;;;4.90;;
2452;SDS011;63678;47.994;7.854;2023-08-30T02:33:32;6.43;;;4.65;;
2452;SDS011;63678;47.994;7.854;2023-08-30T02:36:05;7.15;;;4.20;;
2452;SDS011;63678;47.994;7.854;2023-08-30T02:38:37;8.30;;;4.33;;
2452;SDS011;63678;47.994;7.854;2023-08-30T02:41:10;6.40;;;4.82;;
2452;SDS011;63678;47.994;7.854;2023-08-30T02:43:44;8.25;;;4.90;;
2452;SDS011;63678;47.994;7.854;2023-08-30T02:46:16;7.45;;;5.10;;
2452;SDS011;63678;47.994;7.854;2023-08-30T02:48:49;6.10;;;4.80;;
2452;SDS011;63678;47.994;7.854;2023-08-30T02:51:21;7.20;;;5.07;;
2452;SDS011;63678;47.994;7.854;2023-08-30T02:54:16;9.13;;;4.40;;
2452;SDS011;63678;47.994;7.854;2023-08-30T02:56:48;8.80;;;4.88;;
2452;SDS011;63678;47.994;7.854;2023-08-30T02:59:21;6.50;;;4.50;;
2452;SDS011;63678;47.994;7.854;2023-08-30T03:02:14;7.78;;;4.45;;
2452;SDS011;63678;47.994;7.854;2023-08-30T03:04:47;5.33;;;4.10;;
2452;SDS011;63678;47.994;7.854;2023-08-30T03:07:19;6.50;;;4.28;;
2452;SDS011;63678;47.994;7.854;2023-08-30T03:09:52;4.93;;;3.60;;
2452;SDS011;63678;47.994;7.854;2023-08-30T03:12:25;6.75;;;4.45;;
2452;SDS011;63678;47.994;7.854;2023-08-30T03:14:57;6.05;;;3.80;;
2452;SDS011;63678;47.994;7.854;2023-08-30T03:17:48;7.57;;;4.10;;
2452;SDS011;63678;47.994;7.854;2023-08-30T03:20:21;6.80;;;3.95;;
2452;SDS011;63678;47.994;7.854;2023-08-30T03:22:55;7.68;;;5.00;;
2452;SDS011;63678;47.994;7.854;2023-08-30T03:25:29;8.15;;;4.90;;
2452;SDS011;63678;47.994;7.854;2023-08-30T03:28:03;6.15;;;4.13;;
2452;SDS011;63678;47.994;7.854;2023-08-30T03:30:37;6.00;;;4.80;;
2452;SDS011;63678;47.994;7.854;2023-08-30T03:33:09;6.38;;;4.63;;
2452;SDS011;63678;47.994;7.854;2023-08-30T03:35:41;8.90;;;5.03;;
2452;SDS011;63678;47.994;7.854;2023-08-30T03:38:14;6.57;;;5.25;;
2452;SDS011;63678;47.994;7.854;2023-08-30T03:40:52;7.55;;;5.95;;
2452;SDS011;63678;47.994;7.854;2023-08-30T03:43:25;8.87;;;5.40;;
2452;SDS011;63678;47.994;7.854;2023-08-30T03:45:58;8.15;;;4.90;;
2452;SDS011;63678;47.994;7.854;2023-08-30T03:48:31;7.90;;;5.45;;
2452;SDS011;63678;47.994;7.854;2023-08-30T03:51:04;7.32;;;5.15;;
2452;SDS011;63678;47.994;7.854;2023-08-30T03:53:37;7.35;;;5.05;;
2452;SDS011;63678;47.994;7.854;2023-08-30T03:56:09;8.43;;;5.13;;
2452;SDS011;63678;47.994;7.854;2023-08-30T03:58:42;8.73;;;5.03;;
2452;SDS011;63678;47.994;7.854;2023-08-30T04:01:15;7.90;;;5.38;;
2452;SDS011;63678;47.994;7.854;2023-08-30T04:03:48;6.80;;;4.95;;
2452;SDS011;63678;47.994;7.854;2023-08-30T04:06:21;8.15;;;6.00;;
2452;SDS011;63678;47.994;7.854;2023-08-30T04:08:54;8.27;;;5.80;;
2452;SDS011;63678;47.994;7.854;2023-08-30T04:11:27;8.63;;;5.97;;
2452;SDS011;63678;47.994;7.854;2023-08-30T04:13:59;7.05;;;5.65;;
2452;SDS011;63678;47.994;7.854;2023-08-30T04:16:31;10.10;;;5.50;;
2452;SDS011;63678;47.994;7.854;2023-08-30T04:19:04;8.25;;;5.28;;
2452;SDS011;63678;47.994;7.854;2023-08-30T04:21:36;9.20;;;5.20;;
2452;SDS011;63678;47.994;7.854;2023-08-30T04:24:09;7.63;;;5.15;;
2452;SDS011;63678;47.994;7.854;2023-08-30T04:26:42;7.45;;;5.75;;
2452;SDS011;63678;47.994;7.854;2023-08-30T04:29:15;7.65;;;5.68;;
2452;SDS011;63678;47.994;7.854;2023-08-30T04:31:47;7.32;;;5.32;;
2452;SDS011;63678;47.994;7.854;2023-08-30T04:34:19;9.17;;;5.20;;
2452;SDS011;63678;47.994;7.854;2023-08-30T04:36:54;6.95;;;5.70;;
2452;SDS011;63678;47.994;7.854;2023-08-30T04:39:27;6.75;;;5.28;;
2452;SDS011;63678;47.994;7.854;2023-08-30T04:42:00;8.32;;;5.80;;
2452;SDS011;63678;47.994;7.854;2023-08-30T04:44:34;8.43;;;5.97;;
2452;SDS011;63678;47.994;7.854;2023-08-30T04:47:07;8.57;;;5.83;;
2452;SDS011;63678;47.994;7.854;2023-08-30T04:49:41;7.90;;;5.82;;
2452;SDS011;63678;47.994;7.854;2023-08-30T04:52:15;11.50;;;5.97;;
2452;SDS011;63678;47.994;7.854;2023-08-30T04:54:49;8.75;;;5.65;;
2452;SDS011;63678;47.994;7.854;2023-08-30T04:57:22;8.10;;;6.05;;
2452;SDS011;63678;47.994;7.854;2023-08-30T04:59:54;12.57;;;6.40;;
2452;SDS011;63678;47.994;7.854;2023-08-30T05:02:27;7.72;;;5.90;;
2452;SDS011;63678;47.994;7.854;2023-08-30T05:05:05;8.27;;;6.28;;
2452;SDS011;63678;47.994;7.854;2023-08-30T05:07:38;8.52;;;6.00;;
2452;SDS011;63678;47.994;7.854;2023-08-30T05:10:10;9.05;;;5.47;;
2452;SDS011;63678;47.994;7.854;2023-08-30T05:12:47;8.60;;;5.43;;
2452;SDS011;63678;47.994;7.854;2023-08-30T05:15:23;7.50;;;5.90;;
2452;SDS011;63678;47.994;7.854;2023-08-30T05:18:19;7.32;;;5.85;;
2452;SDS011;63678;47.994;7.854;2023-08-30T05:20:52;10.05;;;6.00;;
2452;SDS011;63678;47.994;7.854;2023-08-30T05:23:24;9.15;;;5.85;;
2452;SDS011;63678;47.994;7.854;2023-08-30T05:25:57;9.37;;;5.73;;
2452;SDS011;63678;47.994;7.854;2023-08-30T05:28:29;7.97;;;5.90;;
2452;SDS011;63678;47.994;7.854;2023-08-30T05:31:02;9.07;;;5.40;;
2452;SDS011;63678;47.994;7.854;2023-08-30T05:34:03;9.77;;;5.10;;
2452;SDS011;63678;47.994;7.854;2023-08-30T05:37:04;7.97;;;5.22;;
2452;SDS011;63678;47.994;7.854;2023-08-30T05:39:59;7.90;;;5.40;;
2452;SDS011;63678;47.994;7.854;2023-08-30T05:42:32;7.03;;;5.28;;
2452;SDS011;63678;47.994;7.854;2023-08-30T05:45:04;7.25;;;5.15;;
2452;SDS011;63678;47.994;7.854;2023-08-30T05:47:37;7.72;;;4.85;;
2452;SDS011;63678;47.994;7.854;2023-08-30T05:50:10;7.05;;;5.38;;
2452;SDS011;63678;47.994;7.854;2023-08-30T05:52:43;6.50;;;5.23;;
2452;SDS011;63678;47.994;7.854;2023-08-30T05:55:16;8.75;;;5.03;;
2452;SDS011;63678;47.994;7.854;2023-08-30T05:57:48;7.43;;;5.35;;
2452;SDS011;63678;47.994;7.854;2023-08-30T06:00:22;6.60;;;5.00;;
2452;SDS011;63678;47.994;7.854;2023-08-30T06:02:54;9.73;;;6.03;;
2452;SDS011;63678;47.994;7.854;2023-08-30T06:05:27;7.07;;;4.73;;
2452;SDS011;63678;47.994;7.854;2023-08-30T06:08:00;7.00;;;5.03;;
2452;SDS011;63678;47.994;7.854;2023-08-30T06:10:34;7.25;;;5.07;;
2452;SDS011;63678;47.994;7.854;2023-08-30T06:13:07;7.38;;;5.20;;
2452;SDS011;63678;47.994;7.854;2023-08-30T06:15:39;10.63;;;5.50;;
2452;SDS011;63678;47.994;7.854;2023-08-30T06:18:12;6.40;;;4.77;;
2452;SDS011;63678;47.994;7.854;2023-08-30T06:20:44;6.38;;;4.20;;
2452;SDS011;63678;47.994;7.854;2023-08-30T06:28:22;6.72;;;4.82;;
2452;SDS011;63678;47.994;7.854;2023-08-30T06:30:56;7.28;;;4.80;;
2452;SDS011;63678;47.994;7.854;2023-08-30T06:33:29;7.65;;;4.95;;
2452;SDS011;63678;47.994;7.854;2023-08-30T06:36:02;8.57;;;4.50;;
2452;SDS011;63678;47.994;7.854;2023-08-30T06:38:35;8.50;;;4.72;;
2452;SDS011;63678;47.994;7.854;2023-08-30T06:41:07;8.75;;;5.40;;
2452;SDS011;63678;47.994;7.854;2023-08-30T06:43:39;6.30;;;4.95;;
2452;SDS011;63678;47.994;7.854;2023-08-30T06:46:13;7.38;;;5.22;;
2452;SDS011;63678;47.994;7.854;2023-08-30T06:48:46;6.83;;;4.53;;
2452;SDS011;63678;47.994;7.854;2023-08-30T06:51:23;7.00;;;5.07;;
2452;SDS011;63678;47.994;7.854;2023-08-30T06:53:56;8.65;;;5.57;;
2452;SDS011;63678;47.994;7.854;2023-08-30T06:56:35;6.85;;;4.80;;
2452;SDS011;63678;47.994;7.854;2023-08-30T06:59:18;6.88;;;4.65;;
2452;SDS011;63678;47.994;7.854;2023-08-30T07:01:50;7.07;;;4.50;;
2452;SDS011;63678;47.994;7.854;2023-08-30T07:04:23;6.13;;;4.93;;
2452;SDS011;63678;47.994;7.854;2023-08-30T07:06:55;7.88;;;5.03;;
2452;SDS011;63678;47.994;7.854;2023-08-30T07:09:30;6.25;;;4.90;;
2452;SDS011;63678;47.994;7.854;2023-08-30T07:12:04;9.30;;;5.65;;
2452;SDS011;63678;47.994;7.854;2023-08-30T07:14:37;6.40;;;5.20;;
2452;SDS011;63678;47.994;7.854;2023-08-30T07:17:11;12.13;;;5.20;;
2452;SDS011;63678;47.994;7.854;2023-08-30T07:19:43;8.75;;;5.40;;
2452;SDS011;63678;47.994;7.854;2023-08-30T07:22:15;7.38;;;5.28;;
2452;SDS011;63678;47.994;7.854;2023-08-30T07:24:48;9.48;;;5.50;;
2452;SDS011;63678;47.994;7.854;2023-08-30T07:27:20;6.23;;;4.60;;
2452;SDS011;63678;47.994;7.854;2023-08-30T07:29:53;10.65;;;4.65;;
2452;SDS011;63678;47.994;7.854;2023-08-30T07:32:25;6.60;;;4.55;;
2452;SDS011;63678;47.994;7.854;2023-08-30T07:34:58;6.38;;;4.63;;
2452;SDS011;63678;47.994;7.854;2023-08-30T07:37:31;7.35;;;4.57;;
2452;SDS011;63678;47.994;7.854;2023-08-30T07:40:03;6.33;;;4.10;;
2452;SDS011;63678;47.994;7.854;2023-08-30T07:42:36;6.07;;;4.05;;
2452;SDS011;63678;47.994;7.854;2023-08-30T07:45:09;7.95;;;4.78;;
2452;SDS011;63678;47.994;7.854;2023-08-30T07:47:42;6.95;;;5.07;;
2452;SDS011;63678;47.994;7.854;2023-08-30T07:50:14;5.47;;;3.85;;
2452;SDS011;63678;47.994;7.854;2023-08-30T07:55:42;5.72;;;3.20;;
2452;SDS011;63678;47.994;7.854;2023-08-30T07:58:14;8.90;;;3.85;;
2452;SDS011;63678;47.994;7.854;2023-08-30T08:00:50;5.20;;;3.10;;
2452;SDS011;63678;47.994;7.854;2023-08-30T08:03:24;16.23;;;11.77;;
2452;SDS011;63678;47.994;7.854;2023-08-30T08:05:57;5.83;;;3.47;;
2452;SDS011;63678;47.994;7.854;2023-08-30T08:08:31;5.93;;;3.10;;
2452;SDS011;63678;47.994;7.854;2023-08-30T08:11:04;4.65;;;3.20;;
2452;SDS011;63678;47.994;7.854;2023-08-30T08:13:40;7.25;;;3.40;;
2452;SDS011;63678;47.994;7.854;2023-08-30T08:16:12;8.40;;;3.47;;
2452;SDS011;63678;47.994;7.854;2023-08-30T08:18:45;5.23;;;2.90;;
2452;SDS011;63678;47.994;7.854;2023-08-30T08:21:17;8.18;;;3.97;;
2452;SDS011;63678;47.994;7.854;2023-08-30T08:23:49;12.27;;;6.35;;
2452;SDS011;63678;47.994;7.854;2023-08-30T08:26:22;5.75;;;3.40;;
2452;SDS011;63678;47.994;7.854;2023-08-30T08:28:55;4.03;;;2.90;;
2452;SDS011;63678;47.994;7.854;2023-08-30T08:31:28;5.10;;;3.27;;
2452;SDS011;63678;47.994;7.854;2023-08-30T08:34:10;4.53;;;3.10;;
2452;SDS011;63678;47.994;7.854;2023-08-30T08:36:45;4.95;;;3.38;;
2452;SDS011;63678;47.994;7.854;2023-08-30T08:39:17;5.10;;;3.53;;
2452;SDS011;63678;47.994;7.854;2023-08-30T08:42:09;4.70;;;3.30;;
2452;SDS011;63678;47.994;7.854;2023-08-30T08:44:41;5.67;;;3.27;;
2452;SDS011;63678;47.994;7.854;2023-08-30T08:47:19;6.22;;;3.35;;
2452;SDS011;63678;47.994;7.854;2023-08-30T08:49:52;5.90;;;3.47;;
2452;SDS011;63678;47.994;7.854;2023-08-30T08:52:26;5.00;;;3.42;;
2452;SDS011;63678;47.994;7.854;2023-08-30T08:55:12;5.78;;;4.13;;
2452;SDS011;63678;47.994;7.854;2023-08-30T08:57:44;6.73;;;4.50;;
2452;SDS011;63678;47.994;7.854;2023-08-30T09:00:17;8.30;;;3.83;;
2452;SDS011;63678;47.994;7.854;2023-08-30T09:02:50;5.35;;;3.95;;
2452;SDS011;63678;47.994;7.854;2023-08-30T09:05:56;6.90;;;3.97;;
2452;SDS011;63678;47.994;7.854;2023-08-30T09:08:28;6.32;;;3.70;;
2452;SDS011;63678;47.994;7.854;2023-08-30T09:11:05;5.50;;;3.70;;
2452;SDS011;63678;47.994;7.854;2023-08-30T09:13:38;5.30;;;3.90;;
2452;SDS011;63678;47.994;7.854;2023-08-30T09:16:15;5.20;;;3.67;;
2452;SDS011;63678;47.994;7.854;2023-08-30T09:19:00;7.03;;;3.92;;
2452;SDS011;63678;47.994;7.854;2023-08-30T09:21:50;10.57;;;4.75;;
2452;SDS011;63678;47.994;7.854;2023-08-30T09:24:24;6.60;;;4.40;;
2452;SDS011;63678;47.994;7.854;2023-08-30T09:26:57;6.80;;;4.55;;
2452;SDS011;63678;47.994;7.854;2023-08-30T09:29:31;8.32;;;5.05;;
2452;SDS011;63678;47.994;7.854;2023-08-30T09:32:04;5.78;;;4.60;;
2452;SDS011;63678;47.994;7.854;2023-08-30T09:34:44;9.00;;;5.18;;
2452;SDS011;63678;47.994;7.854;2023-08-30T09:37:19;6.13;;;4.47;;
2452;SDS011;63678;47.994;7.854;2023-08-30T09:39:54;6.30;;;4.85;;
2452;SDS011;63678;47.994;7.854;2023-08-30T09:42:26;7.93;;;4.40;;
2452;SDS011;63678;47.994;7.854;2023-08-30T09:44:59;12.32;;;7.72;;
2452;SDS011;63678;47.994;7.854;2023-08-30T09:47:31;6.93;;;4.70;;
2452;SDS011;63678;47.994;7.854;2023-08-30T09:50:11;6.20;;;4.67;;
2452;SDS011;63678;47.994;7.854;2023-08-30T09:52:43;5.82;;;4.43;;
2452;SDS011;63678;47.994;7.854;2023-08-30T09:55:21;5.63;;;4.10;;
2452;SDS011;63678;47.994;7.854;2023-08-30T09:57:55;5.10;;;4.07;;
2452;SDS011;63678;47.994;7.854;2023-08-30T10:00:28;8.35;;;4.57;;
2452;SDS011;63678;47.994;7.854;2023-08-30T10:03:03;7.63;;;4.13;;
2452;SDS011;63678;47.994;7.854;2023-08-30T10:05:41;5.43;;;4.10;;
2452;SDS011;63678;47.994;7.854;2023-08-30T10:08:14;5.75;;;4.05;;
2452;SDS011;63678;47.994;7.854;2023-08-30T10:10:48;9.70;;;3.90;;
2452;SDS011;63678;47.994;7.854;2023-08-30T10:13:22;6.63;;;4.63;;
2452;SDS011;63678;47.994;7.854;2023-08-30T10:15:56;7.87;;;4.40;;
2452;SDS011;63678;47.994;7.854;2023-08-30T10:18:50;7.85;;;3.90;;
2452;SDS011;63678;47.994;7.854;2023-08-30T10:21:38;5.57;;;3.70;;
2452;SDS011;63678;47.994;7.854;2023-08-30T10:24:14;6.90;;;4.03;;
2452;SDS011;63678;47.994;7.854;2023-08-30T10:27:06;7.63;;;4.30;;
2452;SDS011;63678;47.994;7.854;2023-08-30T10:29:41;6.30;;;3.90;;
2452;SDS011;63678;47.994;7.854;2023-08-30T10:32:19;6.00;;;3.97;;
2452;SDS011;63678;47.994;7.854;2023-08-30T10:34:54;6.32;;;3.90;;
2452;SDS011;63678;47.994;7.854;2023-08-30T10:37:27;4.82;;;3.78;;
2452;SDS011;63678;47.994;7.854;2023-08-30T10:40:00;7.22;;;3.70;;
2452;SDS011;63678;47.994;7.854;2023-08-30T10:42:35;7.37;;;3.83;;
2452;SDS011;63678;47.994;7.854;2023-08-30T10:45:08;5.30;;;3.50;;
2452;SDS011;63678;47.994;7.854;2023-08-30T10:47:45;6.47;;;3.50;;
2452;SDS011;63678;47.994;7.854;2023-08-30T10:50:18;5.70;;;3.70;;
2452;SDS011;63678;47.994;7.854;2023-08-30T10:53:02;5.22;;;3.67;;
2452;SDS011;63678;47.994;7.854;2023-08-30T10:55:38;5.10;;;3.10;;
2452;SDS011;63678;47.994;7.854;2023-08-30T10:58:13;7.68;;;4.38;;
2452;SDS011;63678;47.994;7.854;2023-08-30T11:00:46;7.18;;;3.67;;
2452;SDS011;63678;47.994;7.854;2023-08-30T11:03:19;5.28;;;3.38;;
2452;SDS011;63678;47.994;7.854;2023-08-30T11:05:52;5.30;;;3.60;;
2452;SDS011;63678;47.994;7.854;2023-08-30T11:08:28;6.87;;;3.43;;
2452;SDS011;63678;47.994;7.854;2023-08-30T11:11:04;5.28;;;3.83;;
2452;SDS011;63678;47.994;7.854;2023-08-30T11:13:37;7.25;;;3.60;;
2452;SDS011;63678;47.994;7.854;2023-08-30T11:16:10;8.15;;;3.42;;
2452;SDS011;63678;47.994;7.854;2023-08-30T11:18:44;5.82;;;4.35;;
2452;SDS011;63678;47.994;7.854;2023-08-30T11:21:16;6.73;;;4.17;;
2452;SDS011;63678;47.994;7.854;2023-08-30T11:23:49;4.97;;;3.65;;
2452;SDS011;63678;47.994;7.854;2023-08-30T11:26:23;7.00;;;4.25;;
2452;SDS011;63678;47.994;7.854;2023-08-30T11:28:56;5.07;;;3.47;;
2452;SDS011;63678;47.994;7.854;2023-08-30T11:31:28;6.07;;;3.47;;
2452;SDS011;63678;47.994;7.854;2023-08-30T11:34:01;5.77;;;3.40;;
2452;SDS011;63678;47.994;7.854;2023-08-30T11:36:35;6.00;;;3.75;;
2452;SDS011;63678;47.994;7.854;2023-08-30T11:39:09;6.15;;;3.85;;
2452;SDS011;63678;47.994;7.854;2023-08-30T11:41:43;6.03;;;3.83;;
2452;SDS011;63678;47.994;7.854;2023-08-30T11:44:16;5.68;;;3.85;;
2452;SDS011;63678;47.994;7.854;2023-08-30T11:46:49;5.97;;;4.13;;
2452;SDS011;63678;47.994;7.854;2023-08-30T11:49:29;6.55;;;3.80;;
2452;SDS011;63678;47.994;7.854;2023-08-30T11:52:01;5.88;;;4.00;;
2452;SDS011;63678;47.994;7.854;2023-08-30T11:54:34;8.73;;;4.18;;
2452;SDS011;63678;47.994;7.854;2023-08-30T11:57:08;5.88;;;4.20;;
2452;SDS011;63678;47.994;7.854;2023-08-30T11:59:41;5.47;;;3.73;;
2452;SDS011;63678;47.994;7.854;2023-08-30T12:02:15;5.65;;;3.95;;
2452;SDS011;63678;47.994;7.854;2023-08-30T12:04:49;7.15;;;3.95;;
2452;SDS011;63678;47.994;7.854;2023-08-30T12:07:26;5.32;;;3.40;;
2452;SDS011;63678;47.994;7.854;2023-08-30T12:10:05;4.55;;;2.97;;
2452;SDS011;63678;47.994;7.854;2023-08-30T12:12:44;6.43;;;3.70;;
2452;SDS011;63678;47.994;7.854;2023-08-30T12:15:17;5.38;;;3.15;;
2452;SDS011;63678;47.994;7.854;2023-08-30T12:17:51;5.80;;;4.00;;
2452;SDS011;63678;47.994;7.854;2023-08-30T12:27:24;6.80;;;3.07;;
2452;SDS011;63678;47.994;7.854;2023-08-30T12:30:17;6.07;;;3.08;;
2452;SDS011;63678;47.994;7.854;2023-08-30T12:33:12;6.05;;;3.22;;
2452;SDS011;63678;47.994;7.854;2023-08-30T12:36:10;4.80;;;3.20;;
2452;SDS011;63678;47.994;7.854;2023-08-30T12:38:46;5.65;;;3.17;;
2452;SDS011;63678;47.994;7.854;2023-08-30T12:41:19;8.37;;;3.40;;
2452;SDS011;63678;47.994;7.854;2023-08-30T12:43:55;4.80;;;2.58;;
2452;SDS011;63678;47.994;7.854;2023-08-30T12:46:27;7.28;;;3.22;;
2452;SDS011;63678;47.994;7.854;2023-08-30T12:48:59;6.05;;;3.38;;
2452;SDS011;63678;47.994;7.854;2023-08-30T12:51:32;5.18;;;2.85;;
2452;SDS011;63678;47.994;7.854;2023-08-30T12:54:05;5.53;;;3.30;;
2452;SDS011;63678;47.994;7.854;2023-08-30T12:56:50;6.00;;;2.83;;
2452;SDS011;63678;47.994;7.854;2023-08-30T12:59:28;5.45;;;3.13;;
2452;SDS011;63678;47.994;7.854;2023-08-30T13:02:01;5.07;;;3.13;;
2452;SDS011;63678;47.994;7.854;2023-08-30T13:04:34;7.43;;;3.58;;
2452;SDS011;63678;47.994;7.854;2023-08-30T13:07:11;4.40;;;2.80;;
2452;SDS011;63678;47.994;7.854;2023-08-30T13:09:51;4.70;;;3.20;;
2452;SDS011;63678;47.994;7.854;2023-08-30T13:12:26;4.25;;;3.00;;
2452;SDS011;63678;47.994;7.854;2023-08-30T13:15:04;6.78;;;3.83;;
2452;SDS011;63678;47.994;7.854;2023-08-30T13:17:44;5.20;;;3.60;;
2452;SDS011;63678;47.994;7.854;2023-08-30T13:20:22;6.17;;;3.23;;
2452;SDS011;63678;47.994;7.854;2023-08-30T13:22:58;5.82;;;3.40;;
2452;SDS011;63678;47.994;7.854;2023-08-30T13:25:30;6.15;;;4.10;;
2452;SDS011;63678;47.994;7.854;2023-08-30T13:28:04;7.70;;;4.00;;
2452;SDS011;63678;47.994;7.854;2023-08-30T13:30:43;6.47;;;3.30;;
2452;SDS011;63678;47.994;7.854;2023-08-30T13:33:17;9.20;;;3.27;;
2452;SDS011;63678;47.994;7.854;2023-08-30T13:35:50;5.45;;;3.10;;
2452;SDS011;63678;47.994;7.854;2023-08-30T13:38:23;8.52;;;3.22;;
2452;SDS011;63678;47.994;7.854;2023-08-30T13:41:00;5.22;;;3.30;;
2452;SDS011;63678;47.994;7.854;2023-08-30T13:43:35;5.18;;;3.38;;
2452;SDS011;63678;47.994;7.854;2023-08-30T13:46:08;6.13;;;3.07;;
2452;SDS011;63678;47.994;7.854;2023-08-30T13:48:40;5.68;;;3.10;;
2452;SDS011;63678;47.994;7.854;2023-08-30T13:51:19;5.05;;;3.30;;
2452;SDS011;63678;47.994;7.854;2023-08-30T13:53:56;9.15;;;5.25;;
2452;SDS011;63678;47.994;7.854;2023-08-30T13:56:28;6.82;;;3.28;;
2452;SDS011;63678;47.994;7.854;2023-08-30T13:59:08;5.60;;;3.07;;
2452;SDS011;63678;47.994;7.854;2023-08-30T14:01:42;5.85;;;2.92;;
2452;SDS011;63678;47.994;7.854;2023-08-30T14:04:15;4.35;;;2.85;;
2452;SDS011;63678;47.994;7.854;2023-08-30T14:06:47;5.95;;;3.40;;
2452;SDS011;63678;47.994;7.854;2023-08-30T14:09:19;6.50;;;3.50;;
2452;SDS011;63678;47.994;7.854;2023-08-30T14:11:53;5.20;;;3.57;;
2452;SDS011;63678;47.994;7.854;2023-08-30T14:14:28;7.18;;;3.35;;
2452;SDS011;63678;47.994;7.854;2023-08-30T14:17:23;5.38;;;2.80;;
2452;SDS011;63678;47.994;7.854;2023-08-30T14:19:57;5.55;;;3.20;;
2452;SDS011;63678;47.994;7.854;2023-08-30T14:22:30;5.22;;;3.60;;
2452;SDS011;63678;47.994;7.854;2023-08-30T14:25:10;5.03;;;2.80;;
2452;SDS011;63678;47.994;7.854;2023-08-30T14:27:47;4.95;;;2.80;;
2452;SDS011;63678;47.994;7.854;2023-08-30T14:30:25;6.05;;;3.83;;
2452;SDS011;63678;47.994;7.854;2023-08-30T14:34:23;5.97;;;2.80;;
2452;SDS011;63678;47.994;7.854;2023-08-30T14:37:10;5.57;;;3.40;;
2452;SDS011;63678;47.994;7.854;2023-08-30T14:40:28;5.67;;;2.83;;
2452;SDS011;63678;47.994;7.854;2023-08-30T14:43:00;5.63;;;2.90;;
2452;SDS011;63678;47.994;7.854;2023-08-30T14:45:33;6.00;;;3.30;;
2452;SDS011;63678;47.994;7.854;2023-08-30T14:48:09;6.82;;;3.20;;
2452;SDS011;63678;47.994;7.854;2023-08-30T14:50:53;5.18;;;3.17;;
2452;SDS011;63678;47.994;7.854;2023-08-30T14:53:44;4.87;;;2.90;;
2452;SDS011;63678;47.994;7.854;2023-08-30T14:56:18;5.38;;;2.88;;
2452;SDS011;63678;47.994;7.854;2023-08-30T14:58:53;4.88;;;3.00;;
2452;SDS011;63678;47.994;7.854;2023-08-30T15:02:33;5.45;;;2.72;;
2452;SDS011;63678;47.994;7.854;2023-08-30T15:05:17;7.55;;;2.97;;
2452;SDS011;63678;47.994;7.854;2023-08-30T15:08:37;4.73;;;2.70;;
2452;SDS011;63678;47.994;7.854;2023-08-30T15:11:15;5.63;;;2.92;;
2452;SDS011;63678;47.994;7.854;2023-08-30T15:13:51;4.10;;;2.58;;
2452;SDS011;63678;47.994;7.854;2023-08-30T15:20:25;4.40;;;2.53;;
2452;SDS011;63678;47.994;7.854;2023-08-30T15:22:59;6.30;;;3.33;;
2452;SDS011;63678;47.994;7.854;2023-08-30T15:26:14;6.30;;;2.92;;
2452;SDS011;63678;47.994;7.854;2023-08-30T15:28:55;5.63;;;3.25;;
2452;SDS011;63678;47.994;7.854;2023-08-30T15:31:30;5.32;;;2.83;;
2452;SDS011;63678;47.994;7.854;2023-08-30T15:35:17;11.90;;;5.80;;
2452;SDS011;63678;47.994;7.854;2023-08-30T15:38:09;4.93;;;2.70;;
2452;SDS011;63678;47.994;7.854;2023-08-30T15:40:41;4.35;;;2.60;;
2452;SDS011;63678;47.994;7.854;2023-08-30T15:43:14;4.72;;;2.90;;
2452;SDS011;63678;47.994;7.854;2023-08-30T15:45:48;5.03;;;2.83;;
2452;SDS011;63678;47.994;7.854;2023-08-30T15:48:39;5.38;;;2.83;;
2452;SDS011;63678;47.994;7.854;2023-08-30T15:51:27;5.77;;;3.70;;
2452;SDS011;63678;47.994;7.854;2023-08-30T15:54:21;5.55;;;2.92;;
2452;SDS011;63678;47.994;7.854;2023-08-30T16:00:07;5.15;;;2.90;;
2452;SDS011;63678;47.994;7.854;2023-08-30T16:03:09;5.70;;;2.53;;
2452;SDS011;63678;47.994;7.854;2023-08-30T16:05:50;4.90;;;2.70;;
2452;SDS011;63678;47.994;7.854;2023-08-30T16:08:22;5.47;;;2.70;;
2452;SDS011;63678;47.994;7.854;2023-08-30T16:11:00;5.68;;;2.97;;
2452;SDS011;63678;47.994;7.854;2023-08-30T16:13:33;5.35;;;2.67;;
2452;SDS011;63678;47.994;7.854;2023-08-30T16:16:06;5.95;;;2.50;;
2452;SDS011;63678;47.994;7.854;2023-08-30T16:18:39;5.27;;;2.73;;
2452;SDS011;63678;47.994;7.854;2023-08-30T16:21:16;5.75;;;2.72;;
2452;SDS011;63678;47.994;7.854;2023-08-30T16:23:49;4.85;;;2.78;;
2452;SDS011;63678;47.994;7.854;2023-08-30T16:26:23;4.30;;;2.38;;